Time;durP1;ratioP1;P1;durP2;ratioP2;P2;SDS_P1;SDS_P2;PMS_P1;PMS_P2;Temp;Humidity;BMP_temperature;BMP_pressure;BME280_temperature;BME280_humidity;BME280_pressure;Samples;Min_cycle;Max_cycle;Signal;HPM_P1;HPM_P2
2023/04/22 00:01:18;;;;;;;6.00;3.05;;;9.90;99.90;;;;;;5030971;28;20032;-72
2023/04/22 00:03:44;;;;;;;0.10;0.10;;;9.90;99.90;;;;;;5043452;28;20040;-71
2023/04/22 00:06:10;;;;;;;0.10;0.10;;;9.90;99.90;;;;;;5051838;28;20041;-71
2023/04/22 00:08:36;;;;;;;1.52;1.42;;;9.90;99.90;;;;;;5052401;28;20488;-71
2023/04/22 00:11:02;;;;;;;0.80;0.80;;;9.60;99.90;;;;;;5052136;28;20025;-71
2023/04/22 00:13:28;;;;;;;0.10;0.10;;;9.50;99.90;;;;;;5052690;28;20443;-72
2023/04/22 00:15:54;;;;;;;0.45;0.45;;;9.50;99.90;;;;;;5052292;28;20029;-71
2023/04/22 00:18:20;;;;;;;0.57;0.57;;;9.30;99.90;;;;;;5052296;28;20104;-71
2023/04/22 00:20:46;;;;;;;0.43;0.40;;;8.90;99.90;;;;;;5052062;28;20025;-71
2023/04/22 00:23:12;;;;;;;0.10;0.10;;;8.90;99.90;;;;;;5052149;28;20025;-71
2023/04/22 00:25:39;;;;;;;0.17;0.17;;;9.00;99.90;;;;;;5051515;28;20021;-71
2023/04/22 00:28:05;;;;;;;0.10;0.10;;;9.20;99.90;;;;;;5060925;28;20053;-71
2023/04/22 00:30:31;;;;;;;0.10;0.10;;;9.20;99.90;;;;;;5051842;28;20473;-72
2023/04/22 00:32:57;;;;;;;0.00;0.00;;;9.20;99.90;;;;;;5051718;28;20036;-71
2023/04/22 00:35:23;;;;;;;0.10;0.10;;;9.40;99.90;;;;;;5066270;28;20024;-71
2023/04/22 00:37:49;;;;;;;0.10;0.10;;;9.40;99.90;;;;;;5031181;28;20083;-71
2023/04/22 00:40:15;;;;;;;1.27;0.95;;;9.60;99.90;;;;;;5045678;28;20108;-71
2023/04/22 00:42:42;;;;;;;0.10;0.10;;;9.40;99.90;;;;;;5030705;28;20037;-71
2023/04/22 00:45:16;;;;;;;1.08;0.88;;;9.20;99.90;;;;;;5043783;28;20064;-71
2023/04/22 00:47:43;;;;;;;0.80;0.80;;;8.90;99.90;;;;;;5051717;28;20082;-71
2023/04/22 00:50:09;;;;;;;1.90;1.00;;;8.70;99.90;;;;;;5030972;28;20017;-72
2023/04/22 00:52:35;;;;;;;0.32;0.32;;;8.90;99.90;;;;;;5031104;28;20063;-72
2023/04/22 00:55:01;;;;;;;0.10;0.10;;;8.90;99.90;;;;;;5030702;28;20045;-71
2023/04/22 00:57:32;;;;;;;0.75;0.75;;;9.10;99.90;;;;;;5046958;28;20021;-71
2023/04/22 00:59:58;;;;;;;0.05;0.05;;;9.30;99.90;;;;;;5051896;28;20029;-71
2023/04/22 01:02:24;;;;;;;0.35;0.35;;;9.50;99.90;;;;;;5051699;28;20405;-71
2023/04/22 01:04:53;;;;;;;0.88;0.82;;;9.50;99.90;;;;;;5051943;28;20083;-71
2023/04/22 01:07:19;;;;;;;0.10;0.10;;;9.40;99.90;;;;;;5052172;28;20037;-71
2023/04/22 01:09:45;;;;;;;0.10;0.10;;;9.50;99.90;;;;;;5033916;28;20028;-71
2023/04/22 01:12:11;;;;;;;0.55;0.50;;;9.40;99.90;;;;;;5031996;28;20033;-71
2023/04/22 01:14:37;;;;;;;0.68;0.68;;;9.50;99.90;;;;;;5033373;28;20029;-71
2023/04/22 01:17:03;;;;;;;0.10;0.10;;;9.30;99.90;;;;;;5033796;28;20029;-71
2023/04/22 01:19:29;;;;;;;0.17;0.17;;;9.50;99.90;;;;;;5049294;28;20025;-71
2023/04/22 01:21:56;;;;;;;0.10;0.10;;;9.60;99.90;;;;;;5055029;28;20032;-71
2023/04/22 01:24:22;;;;;;;0.22;0.22;;;9.60;99.90;;;;;;5055261;28;20013;-71
2023/04/22 01:26:48;;;;;;;0.30;0.30;;;9.60;99.90;;;;;;5055008;28;20366;-71
2023/04/22 01:29:15;;;;;;;0.30;0.30;;;9.40;99.90;;;;;;5055153;28;20025;-71
2023/04/22 01:31:40;;;;;;;6.32;2.92;;;9.40;99.90;;;;;;5054595;28;20029;-71
2023/04/22 01:34:06;;;;;;;0.32;0.32;;;9.40;99.90;;;;;;5033867;28;20025;-71
2023/04/22 01:36:32;;;;;;;0.20;0.20;;;9.10;99.90;;;;;;5048251;28;20087;-71
2023/04/22 01:38:59;;;;;;;0.35;0.35;;;9.30;99.90;;;;;;5035431;28;20040;-71
2023/04/22 01:41:25;;;;;;;3.63;1.45;;;9.30;99.90;;;;;;5053787;28;20036;-71
2023/04/22 01:43:53;;;;;;;0.10;0.10;;;9.20;99.90;;;;;;5049952;28;20029;-72
2023/04/22 01:46:19;;;;;;;1.25;0.60;;;9.30;99.90;;;;;;5054666;28;20080;-72
2023/04/22 01:48:50;;;;;;;0.22;0.22;;;9.40;99.90;;;;;;5051852;28;20053;-71
2023/04/22 01:51:16;;;;;;;0.20;0.20;;;9.60;99.90;;;;;;5050295;28;20049;-71
2023/04/22 01:53:43;;;;;;;0.10;0.10;;;9.60;99.90;;;;;;5049384;28;20520;-71
2023/04/22 01:56:09;;;;;;;0.10;0.10;;;9.50;99.90;;;;;;5053372;28;20017;-71
2023/04/22 01:58:37;;;;;;;0.10;0.10;;;9.40;99.90;;;;;;5050089;28;20030;-71
2023/04/22 02:01:03;;;;;;;0.05;0.05;;;9.40;99.90;;;;;;5053385;28;20209;-71
2023/04/22 02:03:29;;;;;;;0.10;0.10;;;9.40;99.90;;;;;;5049965;28;20037;-72
2023/04/22 02:05:55;;;;;;;0.10;0.10;;;9.30;99.90;;;;;;5050295;28;20017;-71
2023/04/22 02:08:21;;;;;;;0.10;0.10;;;9.30;99.90;;;;;;5049900;28;20025;-72
2023/04/22 02:10:46;;;;;;;0.10;0.10;;;9.30;99.90;;;;;;5049556;28;20032;-72
2023/04/22 02:13:12;;;;;;;0.10;0.10;;;9.20;99.90;;;;;;5054404;28;20020;-71
2023/04/22 02:15:39;;;;;;;0.40;0.40;;;9.30;99.90;;;;;;5049758;28;20060;-71
2023/04/22 02:18:05;;;;;;;0.30;0.30;;;9.30;99.90;;;;;;5035341;28;20430;-71
2023/04/22 02:20:33;;;;;;;0.20;0.20;;;8.80;99.90;;;;;;5049682;28;20049;-71
2023/04/22 02:22:59;;;;;;;0.00;0.00;;;8.70;99.90;;;;;;5051267;28;20060;-72
2023/04/22 02:25:25;;;;;;;0.10;0.10;;;9.10;99.90;;;;;;5054312;28;20458;-71
2023/04/22 02:27:51;;;;;;;0.10;0.10;;;9.30;99.90;;;;;;5051017;28;20071;-71
2023/04/22 02:30:17;;;;;;;0.10;0.10;;;9.30;99.90;;;;;;5049288;28;20078;-71
2023/04/22 02:32:43;;;;;;;0.10;0.10;;;9.30;99.90;;;;;;5047514;28;20427;-71
2023/04/22 02:35:10;;;;;;;0.13;0.13;;;9.30;99.90;;;;;;5052640;28;20032;-71
2023/04/22 02:37:36;;;;;;;0.10;0.10;;;9.20;99.90;;;;;;5049533;28;20022;-71
2023/04/22 02:40:03;;;;;;;0.10;0.10;;;9.30;99.90;;;;;;5052123;28;20516;-72
2023/04/22 02:42:30;;;;;;;0.82;0.82;;;9.20;99.90;;;;;;5049168;28;20017;-72
2023/04/22 02:44:56;;;;;;;0.10;0.10;;;9.20;99.90;;;;;;5044486;28;20511;-71
2023/04/22 02:47:22;;;;;;;0.05;0.05;;;9.30;99.90;;;;;;5049090;28;20037;-71
2023/04/22 02:49:48;;;;;;;0.10;0.10;;;9.40;99.90;;;;;;5042750;28;20029;-71
2023/04/22 02:52:14;;;;;;;0.05;0.05;;;9.40;99.90;;;;;;5034825;28;20037;-71
2023/04/22 02:54:40;;;;;;;0.20;0.20;;;9.40;99.90;;;;;;5032382;28;20022;-71
2023/04/22 02:57:06;;;;;;;0.10;0.10;;;9.20;99.90;;;;;;5046955;28;20031;-72
2023/04/22 02:59:33;;;;;;;0.20;0.20;;;9.20;99.90;;;;;;5048389;28;20501;-71
2023/04/22 03:01:59;;;;;;;0.10;0.10;;;9.20;99.90;;;;;;5041841;28;20083;-71
2023/04/22 03:04:39;;;;;;;0.10;0.10;;;9.30;99.90;;;;;;5048868;28;20056;-71
2023/04/22 03:07:05;;;;;;;0.57;0.57;;;9.40;99.90;;;;;;5078212;28;20472;-71
2023/04/22 03:09:34;;;;;;;0.10;0.10;;;9.40;99.90;;;;;;5048494;28;20029;-72
2023/04/22 03:12:01;;;;;;;0.08;0.08;;;9.50;99.90;;;;;;5044377;28;20039;-71
2023/04/22 03:14:27;;;;;;;0.40;0.40;;;9.50;99.90;;;;;;5051640;28;20016;-71
2023/04/22 03:16:53;;;;;;;0.00;0.00;;;9.50;99.90;;;;;;5053351;28;20426;-72
2023/04/22 03:19:19;;;;;;;0.10;0.10;;;9.60;99.90;;;;;;5049827;28;20064;-72
2023/04/22 03:21:45;;;;;;;1.67;1.55;;;9.40;99.90;;;;;;5048500;28;20087;-71
2023/04/22 03:24:11;;;;;;;0.70;0.70;;;9.00;99.90;;;;;;5051659;28;20432;-72
2023/04/22 03:26:42;;;;;;;1.17;0.82;;;8.70;99.90;;;;;;5051871;28;20055;-72
2023/04/22 03:29:08;;;;;;;0.47;0.47;;;8.60;99.90;;;;;;5031633;28;20022;-72
2023/04/22 03:31:34;;;;;;;0.10;0.10;;;8.50;99.90;;;;;;5051223;28;20033;-71
2023/04/22 03:34:00;;;;;;;0.90;0.90;;;8.80;99.90;;;;;;5047697;28;20017;-71
2023/04/22 03:36:28;;;;;;;0.10;0.10;;;8.70;99.90;;;;;;5044376;28;20083;-72
2023/04/22 03:38:54;;;;;;;2.92;0.85;;;8.80;99.90;;;;;;5047836;28;20018;-72
2023/04/22 03:41:25;;;;;;;0.77;0.77;;;9.00;99.90;;;;;;5055997;28;20033;-72
2023/04/22 03:43:51;;;;;;;1.38;1.27;;;8.90;99.90;;;;;;5045645;28;20025;-72
2023/04/22 03:46:17;;;;;;;0.10;0.10;;;8.90;99.90;;;;;;5042214;28;20025;-72
2023/04/22 03:48:52;;;;;;;0.10;0.10;;;9.20;99.90;;;;;;5050920;28;20030;-71
2023/04/22 03:51:25;;;;;;;0.17;0.17;;;9.20;99.90;;;;;;5048005;28;20026;-71
2023/04/22 03:53:52;;;;;;;2.03;1.30;;;9.30;99.90;;;;;;5047367;28;20021;-71
2023/04/22 03:56:20;;;;;;;0.00;0.00;;;9.30;99.90;;;;;;5047850;28;20021;-71
2023/04/22 03:58:48;;;;;;;0.00;0.00;;;9.40;99.90;;;;;;5059638;28;20393;-71
2023/04/22 04:01:15;;;;;;;2.38;0.93;;;9.20;99.90;;;;;;5048063;28;20151;-71
2023/04/22 04:03:44;;;;;;;0.13;0.13;;;9.20;99.90;;;;;;5044602;28;20025;-71
2023/04/22 04:06:11;;;;;;;1.33;1.33;;;9.20;99.90;;;;;;5047832;28;20116;-71
2023/04/22 04:08:37;;;;;;;4.43;1.70;;;9.20;99.90;;;;;;5039341;28;20068;-71
2023/04/22 04:11:03;;;;;;;0.30;0.30;;;9.20;99.90;;;;;;5044971;28;20018;-72
2023/04/22 04:13:31;;;;;;;0.10;0.10;;;9.10;99.90;;;;;;5041939;28;20474;-71
2023/04/22 04:16:15;;;;;;;0.98;0.98;;;9.20;99.90;;;;;;5052475;28;20047;-72
2023/04/22 04:18:43;;;;;;;0.10;0.10;;;9.20;99.90;;;;;;5047619;28;20040;-72
2023/04/22 04:21:10;;;;;;;0.10;0.10;;;9.20;99.90;;;;;;5047691;28;20028;-71
2023/04/22 04:23:43;;;;;;;0.10;0.10;;;9.40;99.90;;;;;;5047625;28;20485;-71
2023/04/22 04:26:09;;;;;;;3.22;1.10;;;9.30;99.90;;;;;;5079725;28;20098;-71
2023/04/22 04:28:40;;;;;;;0.10;0.10;;;9.40;99.90;;;;;;5048002;28;20034;-71
2023/04/22 04:31:06;;;;;;;0.63;0.63;;;9.30;99.90;;;;;;5050624;28;20029;-71
2023/04/22 04:33:32;;;;;;;0.10;0.10;;;9.20;99.90;;;;;;5050011;28;20024;-71
2023/04/22 04:35:59;;;;;;;0.15;0.15;;;9.20;99.90;;;;;;5047607;28;20034;-71
2023/04/22 04:38:29;;;;;;;0.10;0.10;;;9.20;99.90;;;;;;5043918;28;20052;-71
2023/04/22 04:40:56;;;;;;;0.52;0.52;;;9.30;99.90;;;;;;5030597;28;20040;-72
2023/04/22 04:43:24;;;;;;;0.20;0.20;;;9.30;99.90;;;;;;5046037;28;20061;-72
2023/04/22 04:45:57;;;;;;;5.20;2.17;;;9.20;99.90;;;;;;5031963;28;20044;-71
2023/04/22 04:48:34;;;;;;;0.10;0.10;;;9.20;99.90;;;;;;5031941;28;20428;-71
2023/04/22 04:51:06;;;;;;;1.55;1.45;;;9.30;99.90;;;;;;5034143;28;20021;-72
2023/04/22 04:53:36;;;;;;;0.77;0.77;;;9.20;99.90;;;;;;5037850;28;20029;-72
2023/04/22 04:56:02;;;;;;;0.45;0.43;;;9.00;99.90;;;;;;5017831;28;20489;-72
2023/04/22 04:58:29;;;;;;;0.35;0.35;;;9.10;99.90;;;;;;5026580;28;20482;-72
2023/04/22 05:01:30;;;;;;;0.00;0.00;;;9.00;99.90;;;;;;5037598;28;20056;-71
2023/04/22 05:04:02;;;;;;;0.10;0.10;;;9.10;99.90;;;;;;5036061;28;20048;-72
2023/04/22 05:06:28;;;;;;;0.30;0.30;;;9.40;99.90;;;;;;5055310;28;20040;-72
2023/04/22 05:08:59;;;;;;;1.02;1.02;;;9.40;99.90;;;;;;5034356;28;20025;-72
2023/04/22 05:11:25;;;;;;;2.00;1.05;;;9.40;99.90;;;;;;5034343;28;20556;-71
2023/04/22 05:13:52;;;;;;;0.15;0.15;;;9.40;99.90;;;;;;5030473;28;20021;-71
2023/04/22 05:16:25;;;;;;;0.22;0.22;;;9.70;99.90;;;;;;5033931;28;20139;-72
2023/04/22 05:18:51;;;;;;;0.10;0.10;;;9.80;99.90;;;;;;5029161;28;20487;-71
2023/04/22 05:21:17;;;;;;;0.03;0.03;;;9.90;99.90;;;;;;5033967;28;20121;-72
2023/04/22 05:23:44;;;;;;;0.10;0.10;;;9.90;99.90;;;;;;5027304;28;20025;-71
2023/04/22 05:26:10;;;;;;;0.82;0.82;;;9.80;99.90;;;;;;5035742;28;20025;-71
2023/04/22 05:28:39;;;;;;;0.10;0.10;;;9.80;99.90;;;;;;5037328;28;20037;-72
2023/04/22 05:31:05;;;;;;;0.30;0.30;;;10.00;99.90;;;;;;5034161;28;20029;-72
2023/04/22 05:33:31;;;;;;;0.43;0.43;;;9.90;99.90;;;;;;5036199;28;20389;-71
2023/04/22 05:35:58;;;;;;;0.10;0.10;;;9.90;99.90;;;;;;5034877;28;20433;-73
2023/04/22 05:38:24;;;;;;;3.63;0.98;;;9.90;99.90;;;;;;5035877;28;20059;-72
2023/04/22 05:40:51;;;;;;;7.30;3.15;;;9.90;99.90;;;;;;5037041;28;20065;-72
2023/04/22 05:43:18;;;;;;;0.10;0.10;;;10.00;99.90;;;;;;5021748;28;20027;-71
2023/04/22 05:45:49;;;;;;;0.10;0.10;;;10.00;99.90;;;;;;5021589;28;20055;-72
2023/04/22 05:48:17;;;;;;;4.30;1.55;;;10.10;99.90;;;;;;5034584;28;20051;-72
2023/04/22 05:50:53;;;;;;;0.63;0.63;;;10.10;99.90;;;;;;5031242;28;20026;-72
2023/04/22 05:53:19;;;;;;;0.05;0.05;;;10.20;99.90;;;;;;5040764;28;20029;-72
2023/04/22 05:55:45;;;;;;;0.00;0.00;;;10.20;99.90;;;;;;5036588;28;20013;-72
2023/04/22 05:58:12;;;;;;;0.20;0.20;;;10.40;99.90;;;;;;5065978;28;20032;-72
2023/04/22 06:00:51;;;;;;;0.20;0.20;;;10.60;99.90;;;;;;5055601;28;20560;-71
2023/04/22 06:03:56;;;;;;;0.25;0.25;;;10.40;99.90;;;;;;5046539;28;20111;-72
2023/04/22 06:06:24;;;;;;;0.20;0.20;;;10.60;99.90;;;;;;5036269;28;20094;-72
2023/04/22 06:08:50;;;;;;;0.10;0.10;;;10.70;99.90;;;;;;5058596;28;20016;-72
2023/04/22 06:11:17;;;;;;;3.30;3.10;;;10.70;99.90;;;;;;5058905;28;20362;-72
2023/04/22 06:13:43;;;;;;;0.63;0.63;;;10.60;99.90;;;;;;5044141;28;20021;-73
2023/04/22 06:16:09;;;;;;;0.43;0.43;;;10.60;99.90;;;;;;5038613;28;20032;-72
2023/04/22 06:18:35;;;;;;;0.10;0.10;;;10.30;99.90;;;;;;5049943;28;20017;-72
2023/04/22 06:21:03;;;;;;;3.22;2.92;;;10.50;99.90;;;;;;5039619;28;20477;-72
2023/04/22 06:23:29;;;;;;;1.38;1.27;;;10.40;99.90;;;;;;5041598;28;20016;-72
2023/04/22 06:25:55;;;;;;;0.30;0.30;;;10.10;99.90;;;;;;5058468;28;20028;-72
2023/04/22 06:28:22;;;;;;;18.88;3.53;;;10.10;99.90;;;;;;5037511;28;20504;-72
2023/04/22 06:30:50;;;;;;;2.88;1.58;;;10.10;99.90;;;;;;5041862;28;20477;-72
2023/04/22 06:33:16;;;;;;;13.52;2.63;;;10.20;99.90;;;;;;5036718;28;20021;-72
2023/04/22 06:35:42;;;;;;;6.47;2.50;;;10.20;99.90;;;;;;5031486;28;20037;-72
2023/04/22 06:38:07;;;;;;;2.85;2.60;;;10.40;99.90;;;;;;5035974;28;20488;-72
2023/04/22 06:40:42;;;;;;;0.10;0.10;;;10.30;99.90;;;;;;5052462;28;20090;-72
2023/04/22 06:43:22;;;;;;;1.98;1.85;;;10.50;99.90;;;;;;5084092;28;20025;-72
2023/04/22 06:46:06;;;;;;;0.38;0.38;;;10.70;99.90;;;;;;5051858;28;20051;-72
2023/04/22 06:48:38;;;;;;;0.22;0.22;;;11.10;99.90;;;;;;5053623;28;20408;-71
2023/04/22 06:51:30;;;;;;;3.65;2.05;;;11.20;99.90;;;;;;5038577;28;20036;-73
2023/04/22 06:53:57;;;;;;;3.00;1.75;;;11.40;99.90;;;;;;5059048;28;20032;-72
2023/04/22 06:56:23;;;;;;;4.65;4.20;;;11.70;99.90;;;;;;5056379;28;20393;-72
2023/04/22 06:58:49;;;;;;;2.55;2.35;;;11.80;99.90;;;;;;5055356;28;20033;-72
2023/04/22 07:01:16;;;;;;;7.30;3.05;;;12.20;99.90;;;;;;5055417;28;20017;-71
2023/04/22 07:03:41;;;;;;;1.35;0.57;;;12.00;99.90;;;;;;5053808;28;20442;-72
2023/04/22 07:06:10;;;;;;;1.25;0.88;;;12.00;99.90;;;;;;5055514;28;20036;-72
2023/04/22 07:08:37;;;;;;;2.20;1.88;;;12.00;99.90;;;;;;5054648;28;20470;-72
2023/04/22 07:11:03;;;;;;;2.35;1.55;;;12.40;99.90;;;;;;5056404;28;20135;-72
2023/04/22 07:13:41;;;;;;;6.03;3.60;;;12.10;99.90;;;;;;5054758;28;20029;-72
2023/04/22 07:16:07;;;;;;;6.05;3.28;;;12.00;99.90;;;;;;5054733;28;20503;-71
2023/04/22 07:18:34;;;;;;;1.23;0.90;;;12.00;99.90;;;;;;5058307;28;20027;-72
2023/04/22 07:21:00;;;;;;;0.45;0.45;;;11.90;99.90;;;;;;5056149;28;20029;-72
2023/04/22 07:23:26;;;;;;;0.10;0.10;;;12.10;99.90;;;;;;5058148;28;20024;-72
2023/04/22 07:25:52;;;;;;;1.10;1.00;;;12.20;99.90;;;;;;5056404;28;20079;-71
2023/04/22 07:28:18;;;;;;;1.77;1.65;;;12.40;99.90;;;;;;5052168;28;20488;-72
2023/04/22 07:30:45;;;;;;;0.17;0.17;;;12.20;99.90;;;;;;5057115;28;20021;-72
2023/04/22 07:33:11;;;;;;;6.75;3.70;;;12.50;99.90;;;;;;5054356;28;20075;-72
2023/04/22 07:35:37;;;;;;;0.25;0.25;;;12.60;99.90;;;;;;5051421;28;20385;-72
2023/04/22 07:38:02;;;;;;;1.65;1.55;;;12.40;99.90;;;;;;5063108;28;20025;-72
2023/04/22 07:40:28;;;;;;;0.50;0.50;;;12.40;99.90;;;;;;5054381;28;20029;-72
2023/04/22 07:42:54;;;;;;;0.10;0.10;;;12.50;99.90;;;;;;5053419;28;20419;-72
2023/04/22 07:45:20;;;;;;;2.50;0.85;;;12.70;99.90;;;;;;5059669;28;20035;-72
2023/04/22 07:47:45;;;;;;;4.10;2.15;;;13.00;99.90;;;;;;5052760;28;20032;-72
2023/04/22 07:50:11;;;;;;;0.10;0.10;;;12.90;99.90;;;;;;5049329;28;20026;-71
2023/04/22 07:52:37;;;;;;;0.10;0.10;;;13.10;99.90;;;;;;5056833;28;20124;-72
2023/04/22 07:55:03;;;;;;;2.88;1.15;;;13.40;99.90;;;;;;5061412;28;20029;-71
2023/04/22 07:57:29;;;;;;;0.60;0.60;;;13.70;99.90;;;;;;5056366;28;20029;-72
2023/04/22 07:59:55;;;;;;;0.10;0.10;;;13.70;99.90;;;;;;5051446;28;20013;-72
2023/04/22 08:02:21;;;;;;;1.42;0.85;;;13.90;99.90;;;;;;5063239;28;20056;-72
2023/04/22 08:04:47;;;;;;;0.45;0.45;;;14.30;99.90;;;;;;5061055;28;20048;-72
2023/04/22 08:07:14;;;;;;;1.40;1.30;;;14.80;99.90;;;;;;5050539;28;20469;-71
2023/04/22 08:09:40;;;;;;;0.20;0.20;;;14.80;99.90;;;;;;5031978;28;20029;-72
2023/04/22 08:12:05;;;;;;;0.47;0.47;;;15.00;99.90;;;;;;5054902;28;20035;-72
2023/04/22 08:14:31;;;;;;;0.20;0.20;;;15.00;99.90;;;;;;5057262;28;20424;-72
2023/04/22 08:16:57;;;;;;;0.88;0.88;;;15.10;99.90;;;;;;5056307;28;20029;-72
2023/04/22 08:19:23;;;;;;;0.03;0.03;;;15.00;99.90;;;;;;5053458;28;20025;-72
2023/04/22 08:21:50;;;;;;;1.00;1.00;;;15.00;99.90;;;;;;5055169;28;20155;-72
2023/04/22 08:24:16;;;;;;;0.03;0.03;;;14.90;99.90;;;;;;5063709;28;20013;-72
2023/04/22 08:26:42;;;;;;;1.65;1.15;;;14.80;99.90;;;;;;5060935;28;20040;-72
2023/04/22 08:29:07;;;;;;;1.65;1.23;;;14.90;99.90;;;;;;5058820;28;20116;-72
2023/04/22 08:31:33;;;;;;;0.43;0.43;;;15.10;99.90;;;;;;5050219;28;20507;-72
2023/04/22 08:33:59;;;;;;;1.05;1.05;;;14.40;99.90;;;;;;5049574;28;20025;-72
2023/04/22 08:36:26;;;;;;;20.63;2.47;;;14.50;99.90;;;;;;5059223;28;20039;-72
2023/04/22 08:38:53;;;;;;;4.72;3.65;;;14.00;99.90;;;;;;5056266;28;20021;-72
2023/04/22 08:41:20;;;;;;;1.10;0.98;;;14.00;99.90;;;;;;5037372;28;20120;-72
2023/04/22 08:43:48;;;;;;;4.93;3.58;;;14.40;99.90;;;;;;5055356;28;20025;-72
2023/04/22 08:46:18;;;;;;;2.08;1.85;;;14.50;99.90;;;;;;5042614;28;20756;-71
2023/04/22 08:48:48;;;;;;;3.80;2.70;;;14.40;99.90;;;;;;5051531;28;20045;-72
2023/04/22 08:51:16;;;;;;;3.00;1.75;;;14.20;99.90;;;;;;5047780;28;20067;-72
2023/04/22 08:53:44;;;;;;;5.25;2.72;;;14.20;99.90;;;;;;5058677;28;20120;-72
2023/04/22 08:56:13;;;;;;;3.78;2.88;;;14.10;99.90;;;;;;5055790;28;20416;-72
2023/04/22 08:58:42;;;;;;;0.32;0.32;;;13.80;99.90;;;;;;5057161;28;20047;-73
2023/04/22 09:01:08;;;;;;;10.85;3.30;;;14.40;99.90;;;;;;5057943;28;20040;-73
2023/04/22 09:03:37;;;;;;;4.47;3.15;;;14.60;99.90;;;;;;5063150;28;20040;-74
2023/04/22 09:06:04;;;;;;;0.38;0.38;;;14.50;99.90;;;;;;5072202;28;20060;-73
2023/04/22 09:08:31;;;;;;;5.78;1.48;;;14.40;99.90;;;;;;5059039;28;20036;-73
2023/04/22 09:10:58;;;;;;;2.42;2.15;;;14.80;99.90;;;;;;5057894;28;20029;-72
2023/04/22 09:13:25;;;;;;;3.65;2.28;;;14.80;99.90;;;;;;5066723;28;20062;-72
2023/04/22 09:15:51;;;;;;;0.65;0.65;;;14.80;99.90;;;;;;5067356;28;20028;-74
2023/04/22 09:18:18;;;;;;;6.78;3.17;;;14.80;99.90;;;;;;5059179;28;20033;-72
2023/04/22 09:20:46;;;;;;;3.13;1.80;;;14.80;99.90;;;;;;5056917;28;20057;-73
2023/04/22 09:23:12;;;;;;;2.45;2.25;;;14.50;99.90;;;;;;5053403;28;20028;-72
2023/04/22 09:25:39;;;;;;;6.47;3.22;;;14.70;99.90;;;;;;5060212;28;20020;-72
2023/04/22 09:28:05;;;;;;;1.17;1.13;;;14.70;99.90;;;;;;5064071;28;20049;-72
2023/04/22 09:30:33;;;;;;;1.25;0.63;;;14.70;99.90;;;;;;5059156;28;20109;-73
2023/04/22 09:33:00;;;;;;;0.65;0.60;;;14.80;99.90;;;;;;5055850;28;20495;-74
2023/04/22 09:35:36;;;;;;;0.20;0.20;;;14.90;99.90;;;;;;5055923;28;20017;-73
2023/04/22 09:38:05;;;;;;;5.18;1.20;;;14.80;99.90;;;;;;5047315;28;20063;-72
2023/04/22 09:40:31;;;;;;;0.20;0.15;;;14.80;99.90;;;;;;5063633;28;20048;-72
2023/04/22 09:42:59;;;;;;;0.57;0.57;;;14.80;99.90;;;;;;5064397;28;20396;-72
2023/04/22 09:45:35;;;;;;;1.13;1.13;;;14.80;99.90;;;;;;5060767;28;20085;-72
2023/04/22 09:48:27;;;;;;;0.38;0.28;;;14.50;99.90;;;;;;5053023;28;20047;-72
2023/04/22 09:50:52;;;;;;;0.10;0.10;;;14.90;99.90;;;;;;5051852;28;20406;-72
2023/04/22 09:53:20;;;;;;;0.85;0.77;;;14.70;99.90;;;;;;5053953;28;20020;-72
2023/04/22 09:55:52;;;;;;;0.08;0.08;;;14.50;99.90;;;;;;5052706;28;20086;-73
2023/04/22 09:58:26;;;;;;;0.20;0.20;;;14.50;99.90;;;;;;5054407;28;20454;-72
2023/04/22 10:00:55;;;;;;;5.53;0.88;;;14.70;99.90;;;;;;5054214;28;20370;-72
2023/04/22 10:03:21;;;;;;;6.30;3.85;;;14.50;99.90;;;;;;5054160;28;20465;-72
2023/04/22 10:05:47;;;;;;;7.30;2.38;;;14.40;99.90;;;;;;5054259;28;20032;-73
2023/04/22 10:08:15;;;;;;;1.05;0.95;;;13.80;99.90;;;;;;5069746;28;20461;-72
2023/04/22 10:10:41;;;;;;;11.35;3.20;;;13.40;99.90;;;;;;5054305;28;20062;-73
2023/04/22 10:13:08;;;;;;;0.52;0.52;;;13.00;99.90;;;;;;5053998;28;20032;-72
2023/04/22 10:15:42;;;;;;;3.47;2.70;;;12.90;99.90;;;;;;5049769;28;20021;-72
2023/04/22 10:18:15;;;;;;;4.10;3.55;;;12.60;99.90;;;;;;5052752;28;20058;-72
2023/04/22 10:20:42;;;;;;;8.65;5.32;;;12.50;99.90;;;;;;5054437;28;20041;-72
2023/04/22 10:23:14;;;;;;;8.43;1.73;;;12.50;99.90;;;;;;5053978;28;20017;-72
2023/04/22 10:25:41;;;;;;;2.00;1.90;;;12.20;99.90;;;;;;5054300;28;20382;-72
2023/04/22 10:28:09;;;;;;;0.10;0.10;;;12.20;99.90;;;;;;5053533;28;20037;-72
2023/04/22 10:30:37;;;;;;;3.15;2.53;;;12.20;99.90;;;;;;5054245;28;20104;-72
2023/04/22 10:33:27;;;;;;;7.13;4.65;;;12.30;99.90;;;;;;5053636;28;20033;-72
2023/04/22 10:36:15;;;;;;;2.28;1.48;;;12.10;99.90;;;;;;5053973;28;20047;-72
2023/04/22 10:39:01;;;;;;;2.08;1.83;;;11.90;99.90;;;;;;5053547;28;20025;-72
2023/04/22 10:41:32;;;;;;;0.15;0.15;;;11.80;99.90;;;;;;5024249;28;20601;-73
2023/04/22 10:44:05;;;;;;;0.10;0.10;;;11.90;99.90;;;;;;5051522;28;20025;-72
2023/04/22 10:46:36;;;;;;;2.35;1.10;;;12.10;99.90;;;;;;5053828;28;20032;-72
2023/04/22 10:49:20;;;;;;;1.27;1.05;;;12.10;99.90;;;;;;5050927;28;20037;-72
2023/04/22 10:51:48;;;;;;;2.30;2.15;;;12.10;99.90;;;;;;5050225;28;20048;-72
2023/04/22 10:54:35;;;;;;;0.98;0.95;;;12.10;99.90;;;;;;5057328;28;20056;-71
2023/04/22 10:57:02;;;;;;;0.17;0.17;;;12.00;99.90;;;;;;5053161;28;20032;-72
2023/04/22 10:59:29;;;;;;;4.72;2.13;;;12.20;99.90;;;;;;5036621;28;20033;-72
2023/04/22 11:02:01;;;;;;;0.28;0.28;;;12.00;99.90;;;;;;5065809;28;20063;-72
2023/04/22 11:04:27;;;;;;;1.38;1.20;;;12.20;99.90;;;;;;5054705;28;20024;-72
2023/04/22 11:07:25;;;;;;;0.10;0.10;;;12.20;99.90;;;;;;5055206;28;20473;-72
2023/04/22 11:10:03;;;;;;;1.48;1.38;;;12.50;99.90;;;;;;5041377;28;20068;-72
2023/04/22 11:12:37;;;;;;;5.35;2.95;;;12.70;99.90;;;;;;5042131;28;20036;-72
2023/04/22 11:15:08;;;;;;;4.50;2.83;;;12.50;99.90;;;;;;5054757;28;20056;-72
2023/04/22 11:17:35;;;;;;;0.47;0.47;;;12.30;99.90;;;;;;5058778;28;20101;-73
2023/04/22 11:20:03;;;;;;;1.77;1.65;;;12.50;99.90;;;;;;5058685;28;20023;-73
2023/04/22 11:22:37;;;;;;;0.20;0.20;;;12.70;99.90;;;;;;5057284;28;20465;-72
2023/04/22 11:25:04;;;;;;;3.85;3.55;;;12.90;99.90;;;;;;5054560;28;20051;-73
2023/04/22 11:27:30;;;;;;;1.40;1.10;;;12.70;99.90;;;;;;5054497;28;20025;-72
2023/04/22 11:30:34;;;;;;;1.95;1.85;;;12.40;99.90;;;;;;5050983;28;20033;-73
2023/04/22 11:33:00;;;;;;;2.20;1.23;;;12.50;99.90;;;;;;5050369;28;20749;-72
2023/04/22 11:35:32;;;;;;;1.25;1.15;;;12.60;99.90;;;;;;5053925;28;20025;-72
2023/04/22 11:38:03;;;;;;;1.55;1.45;;;12.60;99.90;;;;;;5049885;28;20083;-72
2023/04/22 11:40:38;;;;;;;0.75;0.75;;;12.40;99.90;;;;;;5051102;28;20036;-72
2023/04/22 11:43:05;;;;;;;0.10;0.10;;;12.20;99.90;;;;;;5052234;28;20064;-72
2023/04/22 11:45:34;;;;;;;0.50;0.50;;;12.30;99.90;;;;;;5053726;28;20047;-73
2023/04/22 11:48:00;;;;;;;0.13;0.13;;;12.20;99.90;;;;;;5050891;28;20039;-72
2023/04/22 11:50:37;;;;;;;0.75;0.75;;;12.20;99.90;;;;;;5048618;28;20025;-73
2023/04/22 11:53:12;;;;;;;4.80;1.85;;;12.40;99.90;;;;;;5052170;28;20037;-72
2023/04/22 11:55:39;;;;;;;2.53;2.33;;;12.50;99.90;;;;;;5055374;28;20017;-72
2023/04/22 11:58:06;;;;;;;0.10;0.10;;;12.50;99.90;;;;;;5052550;28;20393;-72
2023/04/22 12:00:39;;;;;;;0.22;0.22;;;12.60;99.90;;;;;;5053427;28;20055;-73
2023/04/22 12:03:14;;;;;;;7.88;2.60;;;12.70;99.90;;;;;;5052405;28;20053;-73
2023/04/22 12:05:42;;;;;;;3.00;2.78;;;12.80;99.90;;;;;;5050686;28;20083;-72
2023/04/22 12:08:09;;;;;;;2.28;1.30;;;12.40;99.90;;;;;;5050940;28;20033;-72
2023/04/22 12:10:40;;;;;;;1.00;0.95;;;12.20;99.90;;;;;;5051128;28;20061;-73
2023/04/22 12:13:06;;;;;;;2.87;1.97;;;12.30;99.90;;;;;;5053696;28;20040;-73
2023/04/22 12:15:42;;;;;;;0.32;0.32;;;12.70;99.90;;;;;;5049802;28;20071;-72
2023/04/22 12:18:10;;;;;;;0.60;0.60;;;12.80;99.90;;;;;;5082759;28;20029;-72
2023/04/22 12:20:40;;;;;;;10.38;3.05;;;12.90;99.90;;;;;;5049749;28;20048;-73
2023/04/22 12:23:13;;;;;;;0.32;0.32;;;12.50;99.90;;;;;;5054456;28;20461;-72
2023/04/22 12:25:40;;;;;;;0.40;0.40;;;12.50;99.90;;;;;;5048547;28;20443;-72
2023/04/22 12:28:06;;;;;;;1.20;1.10;;;12.70;99.90;;;;;;5051233;28;20473;-71
2023/04/22 12:30:32;;;;;;;137.75;35.70;;;12.60;99.90;;;;;;5049542;28;20028;-72
2023/04/22 12:32:58;;;;;;;0.10;0.10;;;13.10;99.90;;;;;;5050402;28;20083;-72
2023/04/22 12:35:23;;;;;;;0.40;0.40;;;13.40;99.90;;;;;;5050984;28;20405;-72
2023/04/22 12:37:50;;;;;;;0.50;0.50;;;13.40;99.90;;;;;;5051544;28;20029;-72
2023/04/22 12:40:15;;;;;;;0.10;0.10;;;13.20;99.90;;;;;;5051636;28;20120;-72
2023/04/22 12:42:41;;;;;;;0.15;0.15;;;12.80;99.90;;;;;;5052694;28;20457;-72
2023/04/22 12:45:08;;;;;;;0.10;0.10;;;12.50;99.90;;;;;;5051295;28;20036;-72
2023/04/22 12:47:34;;;;;;;0.20;0.20;;;12.50;99.90;;;;;;5051419;28;20040;-72
2023/04/22 12:50:05;;;;;;;3.38;0.47;;;12.70;99.90;;;;;;5051292;28;20489;-72
2023/04/22 12:52:32;;;;;;;0.10;0.10;;;12.80;99.90;;;;;;5050489;28;20086;-71
2023/04/22 12:54:58;;;;;;;0.80;0.80;;;13.20;99.90;;;;;;5021740;28;20016;-72
2023/04/22 12:57:25;;;;;;;3.00;0.65;;;13.30;99.90;;;;;;5054484;28;20029;-71